Time;durP1;ratioP1;P1;durP2;ratioP2;P2;SDS_P1;SDS_P2;PMS_P1;PMS_P2;Temp;Humidity;BMP_temperature;BMP_pressure;BME280_temperature;BME280_humidity;BME280_pressure;Samples;Min_cycle;Max_cycle;Signal;HPM_P1;HPM_P2
2024/03/11 00:04:35;;;;;;;10.30;9.30;;;;;;;6.27;100.00;96575.97;15285929;19;20023;-49
2024/03/11 00:10:00;;;;;;;10.65;9.65;;;;;;;6.28;100.00;96572.28;15292867;19;20471;-50
2024/03/11 00:15:27;;;;;;;10.15;9.25;;;;;;;6.31;100.00;96563.88;15286208;19;20559;-48
2024/03/11 00:20:55;;;;;;;10.93;9.35;;;;;;;6.36;100.00;96560.66;15278248;19;20018;-50
2024/03/11 00:26:28;;;;;;;10.52;9.52;;;;;;;6.33;100.00;96545.81;15284396;19;20090;-50
2024/03/11 00:31:56;;;;;;;9.90;8.90;;;;;;;6.26;100.00;96550.22;15285978;19;20333;-49
2024/03/11 00:37:21;;;;;;;11.38;9.32;;;;;;;6.24;100.00;96544.22;15032039;19;5001708;-50
2024/03/11 00:42:46;;;;;;;10.45;9.45;;;;;;;6.17;100.00;96560.16;15281101;19;20085;-50
2024/03/11 00:48:14;;;;;;;10.32;9.32;;;;;;;6.11;100.00;96551.00;15288941;19;20358;-49
2024/03/11 00:53:39;;;;;;;11.68;9.65;;;;;;;6.06;100.00;96560.56;15285349;19;20360;-52
2024/03/11 00:59:04;;;;;;;10.90;9.80;;;;;;;5.99;100.00;96574.66;15291480;19;20033;-51
2024/03/11 01:04:31;;;;;;;11.10;10.00;;;;;;;5.96;100.00;96595.50;15285920;19;20487;-48
2024/03/11 01:09:56;;;;;;;10.80;9.80;;;;;;;5.93;100.00;96593.22;15288470;19;20019;-54
2024/03/11 01:15:21;;;;;;;11.73;10.50;;;;;;;5.92;100.00;96588.88;15279893;19;20029;-49
2024/03/11 01:20:50;;;;;;;11.68;10.50;;;;;;;5.93;100.00;96590.53;15280250;19;20022;-49
2024/03/11 01:26:16;;;;;;;12.15;10.85;;;;;;;5.93;100.00;96590.53;15280841;19;20026;-48
2024/03/11 01:31:41;;;;;;;12.15;10.95;;;;;;;5.94;100.00;96593.03;15278196;19;20024;-50
2024/03/11 01:37:09;;;;;;;11.48;10.48;;;;;;;5.94;100.00;96616.25;15287010;19;20077;-48
2024/03/11 01:42:33;;;;;;;11.43;10.40;;;;;;;5.92;100.00;96605.72;15301106;19;20038;-48
2024/03/11 01:47:59;;;;;;;11.85;10.68;;;;;;;5.95;100.00;96604.53;15297632;19;20018;-51
2024/03/11 01:53:28;;;;;;;12.07;10.43;;;;;;;5.97;100.00;96582.00;14785610;19;10000128;-48
2024/03/11 01:58:54;;;;;;;11.85;10.68;;;;;;;5.99;100.00;96604.06;15041763;19;5001746;-47
2024/03/11 02:04:19;;;;;;;11.95;10.82;;;;;;;6.03;100.00;96601.88;15297614;19;20551;-47
2024/03/11 02:09:47;;;;;;;11.70;10.50;;;;;;;6.04;100.00;96630.25;15302476;19;20018;-51
2024/03/11 02:15:13;;;;;;;12.82;11.55;;;;;;;6.01;100.00;96634.09;15289783;19;20523;-49
2024/03/11 02:20:40;;;;;;;12.52;11.32;;;;;;;6.04;100.00;96635.59;15291244;19;20019;-48
2024/03/11 02:26:08;;;;;;;13.32;12.02;;;;;;;6.05;100.00;96637.28;15293549;19;20018;-56
2024/03/11 02:31:33;;;;;;;14.27;12.98;;;;;;;6.01;100.00;96643.97;15290029;19;20530;-51
2024/03/11 02:37:01;;;;;;;15.05;13.55;;;;;;;5.97;100.00;96654.16;15288043;19;20475;-56
2024/03/11 02:42:30;;;;;;;16.45;14.95;;;;;;;5.97;100.00;96658.66;15299485;19;20430;-54
2024/03/11 02:47:54;;;;;;;17.73;16.02;;;;;;;5.96;100.00;96675.69;15294126;19;20018;-56
2024/03/11 02:53:20;;;;;;;19.35;17.45;;;;;;;5.98;100.00;96673.69;15291076;19;20479;-58
2024/03/11 02:58:47;;;;;;;19.98;17.88;;;;;;;5.94;100.00;96683.91;15297351;19;20022;-57
2024/03/11 03:04:13;;;;;;;20.38;18.38;;;;;;;5.89;100.00;96688.09;15288789;19;20099;-53
2024/03/11 03:09:38;;;;;;;19.20;17.45;;;;;;;5.83;100.00;96706.50;15291360;19;20018;-54
2024/03/11 03:15:08;;;;;;;20.02;17.95;;;;;;;5.80;100.00;96714.03;15296773;19;20010;-52
2024/03/11 03:20:33;;;;;;;20.00;18.00;;;;;;;5.80;100.00;96706.84;15295743;19;20036;-54
2024/03/11 03:25:59;;;;;;;18.80;16.90;;;;;;;5.80;100.00;96711.34;15289227;19;20015;-54
2024/03/11 03:31:33;;;;;;;19.33;17.33;;;;;;;5.80;100.00;96725.56;15285409;19;20011;-54
2024/03/11 03:36:58;;;;;;;18.75;16.95;;;;;;;5.82;100.00;96733.41;15290096;19;20023;-55
2024/03/11 03:42:22;;;;;;;18.30;16.52;;;;;;;5.88;100.00;96737.22;15290455;19;20018;-53
2024/03/11 03:47:50;;;;;;;19.55;16.45;;;;;;;5.92;100.00;96754.59;15292682;19;20010;-52
2024/03/11 03:53:15;;;;;;;17.85;16.15;;;;;;;5.95;100.00;96759.56;15288661;19;20017;-55
2024/03/11 03:58:41;;;;;;;18.27;16.48;;;;;;;6.01;100.00;96758.91;15290438;19;20023;-54
2024/03/11 04:04:08;;;;;;;17.90;16.10;;;;;;;6.04;100.00;96763.06;15285518;19;20022;-54
2024/03/11 04:09:34;;;;;;;17.95;16.10;;;;;;;6.06;100.00;96777.91;15294775;19;20096;-53
2024/03/11 04:14:58;;;;;;;17.75;16.15;;;;;;;6.09;100.00;96768.75;15283735;19;20010;-54
2024/03/11 04:20:27;;;;;;;18.02;16.33;;;;;;;6.11;100.00;96770.22;15288387;19;20025;-51
2024/03/11 04:25:51;;;;;;;17.48;15.77;;;;;;;6.15;100.00;96781.41;15290774;19;20102;-51
2024/03/11 04:31:25;;;;;;;18.33;16.42;;;;;;;6.23;100.00;96794.75;15285793;19;20022;-52
2024/03/11 04:36:52;;;;;;;16.58;15.07;;;;;;;6.28;100.00;96792.38;15288405;19;20077;-52
2024/03/11 04:42:17;;;;;;;16.65;15.05;;;;;;;6.35;100.00;96797.84;15292549;19;20090;-51
2024/03/11 04:47:42;;;;;;;16.92;15.32;;;;;;;6.40;100.00;96795.50;15287286;19;20024;-51
2024/03/11 04:53:15;;;;;;;16.98;15.27;;;;;;;6.38;100.00;96805.53;15281895;19;20011;-55
2024/03/11 04:58:42;;;;;;;17.65;15.95;;;;;;;6.33;100.00;96810.56;15289830;19;20018;-54
2024/03/11 05:04:06;;;;;;;17.05;15.43;;;;;;;6.32;100.00;96825.81;15287681;19;20037;-51
2024/03/11 05:09:34;;;;;;;17.42;15.57;;;;;;;6.36;100.00;96831.63;15289678;19;20443;-50
2024/03/11 05:14:58;;;;;;;17.23;15.52;;;;;;;6.41;100.00;96839.13;15291589;19;20022;-52
2024/03/11 05:20:24;;;;;;;16.73;15.13;;;;;;;6.47;100.00;96833.06;15301188;19;20454;-52
2024/03/11 05:25:51;;;;;;;16.88;15.18;;;;;;;6.51;100.00;96838.94;15299703;19;20034;-51
2024/03/11 05:31:22;;;;;;;17.10;15.38;;;;;;;6.52;100.00;96837.91;15301525;19;20026;-51
2024/03/11 05:36:49;;;;;;;17.75;15.85;;;;;;;6.47;100.00;96849.97;15305148;19;20024;-52
2024/03/11 05:42:17;;;;;;;18.02;16.20;;;;;;;6.43;100.00;96859.34;15293401;19;20378;-54
2024/03/11 05:47:43;;;;;;;15.90;14.30;;;;;;;6.36;100.00;96870.91;15300892;19;20017;-55
2024/03/11 05:53:07;;;;;;;15.13;13.63;;;;;;;6.27;100.00;96875.47;15293925;19;20501;-54
2024/03/11 05:58:35;;;;;;;12.35;11.10;;;;;;;6.25;100.00;96877.47;15301660;19;20014;-50
2024/03/11 06:04:00;;;;;;;9.88;8.95;;;;;;;6.34;100.00;96889.81;15289575;19;20359;-50
2024/03/11 06:09:26;;;;;;;9.60;8.55;;;;;;;6.45;100.00;96907.31;15295735;19;20006;-50
2024/03/11 06:14:54;;;;;;;8.75;7.95;;;;;;;6.54;100.00;96918.81;15289321;19;20024;-51
2024/03/11 06:20:20;;;;;;;7.53;6.45;;;;;;;6.61;100.00;96920.63;15302468;19;20025;-54
2024/03/11 06:25:45;;;;;;;6.32;5.72;;;;;;;6.68;100.00;96926.13;15288952;19;20022;-53
2024/03/11 06:31:20;;;;;;;7.13;4.60;;;;;;;6.78;100.00;96944.66;15290129;19;20407;-53
2024/03/11 06:36:45;;;;;;;5.10;4.60;;;;;;;6.89;100.00;96948.78;15297044;19;20021;-55
2024/03/11 06:42:10;;;;;;;4.28;3.88;;;;;;;6.96;100.00;96943.56;15300180;19;20788;-51
2024/03/11 06:47:40;;;;;;;3.80;3.50;;;;;;;7.09;100.00;96950.03;15297880;19;20042;-53
2024/03/11 06:53:07;;;;;;;3.50;3.20;;;;;;;7.11;100.00;96957.88;15292410;19;20466;-50
2024/03/11 06:58:33;;;;;;;2.30;2.10;;;;;;;7.14;100.00;96972.75;15297670;19;20022;-55
2024/03/11 07:04:01;;;;;;;2.10;1.80;;;;;;;7.28;100.00;96987.28;15291536;19;20064;-50
2024/03/11 07:09:27;;;;;;;1.92;1.83;;;;;;;7.36;100.00;96987.22;15303236;19;20022;-52
2024/03/11 07:14:51;;;;;;;1.95;1.40;;;;;;;7.40;100.00;97004.63;15288566;19;20501;-53
2024/03/11 07:20:20;;;;;;;1.80;1.70;;;;;;;7.45;100.00;97006.78;15299811;19;20025;-51
2024/03/11 07:25:45;;;;;;;1.30;1.20;;;;;;;7.48;100.00;96998.34;15290310;19;20014;-54
2024/03/11 07:31:17;;;;;;;1.23;1.13;;;;;;;7.52;100.00;97010.41;15298829;19;20019;-54
2024/03/11 07:36:45;;;;;;;1.10;1.10;;;;;;;7.70;100.00;96988.69;15292687;19;20492;-52
2024/03/11 07:42:11;;;;;;;1.40;1.13;;;;;;;7.81;100.00;96996.28;15298374;19;20015;-52
2024/03/11 07:47:36;;;;;;;1.17;1.05;;;;;;;7.83;100.00;96988.06;15291907;19;20021;-54
2024/03/11 07:53:03;;;;;;;1.20;1.10;;;;;;;7.81;100.00;96990.94;15286423;19;20023;-52
2024/03/11 07:58:29;;;;;;;1.10;1.10;;;;;;;7.85;100.00;96999.44;15290185;19;20357;-55
2024/03/11 08:03:53;;;;;;;0.98;0.98;;;;;;;7.96;100.00;97007.06;15286123;19;20018;-50
2024/03/11 08:09:22;;;;;;;1.52;1.10;;;;;;;8.16;100.00;97009.28;15295558;19;20021;-54
2024/03/11 08:14:40;;;;;;;0.70;0.70;;;;;;;8.28;100.00;97021.25;15289127;19;20054;-53
2024/03/11 08:20:08;;;;;;;0.77;0.77;;;;;;;8.48;100.00;97023.44;15298037;19;20011;-56
2024/03/11 08:25:37;;;;;;;0.60;0.60;;;;;;;8.70;100.00;97037.78;15296496;19;20030;-54
2024/03/11 08:31:10;;;;;;;0.65;0.50;;;;;;;8.81;100.00;97039.22;15280334;19;20430;-54
2024/03/11 08:36:35;;;;;;;0.40;0.40;;;;;;;8.96;100.00;97041.06;15291472;19;20307;-50
2024/03/11 08:42:02;;;;;;;0.40;0.40;;;;;;;8.97;100.00;97042.75;15293462;19;20014;-52
2024/03/11 08:47:28;;;;;;;0.77;0.60;;;;;;;8.98;100.00;97060.53;15300792;19;20354;-52
2024/03/11 08:52:53;;;;;;;0.73;0.43;;;;;;;9.07;100.00;97062.09;15304102;19;20011;-53
2024/03/11 08:58:21;;;;;;;0.35;0.35;;;;;;;8.97;100.00;97075.78;15309844;19;20021;-52
2024/03/11 09:03:45;;;;;;;0.50;0.40;;;;;;;8.93;100.00;97096.81;15294304;19;20041;-56
2024/03/11 09:09:14;;;;;;;0.50;0.50;;;;;;;9.09;100.00;97105.72;15308321;19;20022;-54
2024/03/11 09:14:41;;;;;;;0.35;0.35;;;;;;;9.17;100.00;97112.88;15296525;19;20362;-52
2024/03/11 09:20:08;;;;;;;0.75;0.50;;;;;;;9.30;100.00;97134.53;15307561;19;20106;-53
2024/03/11 09:25:36;;;;;;;0.47;0.28;;;;;;;9.29;100.00;97148.16;15306775;19;20018;-54
2024/03/11 09:31:12;;;;;;;0.30;0.30;;;;;;;9.30;100.00;97160.59;15295186;19;20853;-57
2024/03/11 09:36:39;;;;;;;1.25;0.70;;;;;;;9.28;100.00;97165.31;15299359;19;20011;-51
2024/03/11 09:42:09;;;;;;;0.40;0.20;;;;;;;9.47;100.00;97166.63;15301551;19;20074;-55
2024/03/11 09:47:41;;;;;;;0.10;0.10;;;;;;;9.67;100.00;97173.09;15301919;19;20410;-52
2024/03/11 09:53:06;;;;;;;0.63;0.30;;;;;;;9.82;100.00;97193.78;15296395;19;20294;-56
2024/03/11 09:58:36;;;;;;;0.45;0.38;;;;;;;10.03;100.00;97166.13;15303183;19;20014;-55
2024/03/11 10:04:05;;;;;;;0.43;0.38;;;;;;;10.27;100.00;97177.56;15291443;19;20490;-56
2024/03/11 10:09:44;;;;;;;0.40;0.40;;;;;;;10.27;100.00;97174.88;15299123;19;20041;-52
2024/03/11 10:15:08;;;;;;;0.60;0.60;;;;;;;10.27;100.00;97185.63;15292729;19;20018;-54
2024/03/11 10:20:37;;;;;;;0.30;0.30;;;;;;;10.33;100.00;97184.84;15303401;19;20029;-55
2024/03/11 10:26:17;;;;;;;0.40;0.40;;;;;;;10.52;100.00;97185.31;15298844;19;20015;-53
2024/03/11 10:31:52;;;;;;;0.75;0.60;;;;;;;10.62;100.00;97185.81;15291503;19;20022;-56
2024/03/11 10:37:21;;;;;;;0.63;0.30;;;;;;;10.57;100.00;97182.88;15302414;19;20086;-57
2024/03/11 10:42:52;;;;;;;2.63;1.50;;;;;;;10.21;100.00;97183.69;15326796;19;20031;-55
2024/03/11 10:48:17;;;;;;;1.50;1.30;;;;;;;10.12;100.00;97181.13;15298426;19;20029;-57
2024/03/11 10:53:44;;;;;;;1.02;0.40;;;;;;;10.28;100.00;97179.22;15292318;19;20043;-56
2024/03/11 10:59:15;;;;;;;0.57;0.57;;;;;;;10.41;100.00;97171.31;15298424;19;20086;-57
2024/03/11 11:04:42;;;;;;;0.93;0.70;;;;;;;10.59;100.00;97181.63;15290961;19;20086;-58
2024/03/11 11:10:13;;;;;;;1.27;0.60;;;;;;;10.81;100.00;97172.72;15290859;19;20022;-55
2024/03/11 11:15:41;;;;;;;1.07;0.60;;;;;;;10.87;100.00;97166.56;15038019;19;5001638;-56
2024/03/11 11:21:08;;;;;;;0.40;0.40;;;;;;;11.07;100.00;97178.34;15290422;19;20354;-57
2024/03/11 11:26:51;;;;;;;0.73;0.30;;;;;;;11.19;100.00;97180.50;15295051;19;20017;-55
2024/03/11 11:32:22;;;;;;;0.75;0.60;;;;;;;11.43;100.00;97178.38;15288684;19;20074;-54
2024/03/11 11:37:49;;;;;;;0.75;0.50;;;;;;;11.72;100.00;97188.09;15294198;19;20050;-51
2024/03/11 11:43:28;;;;;;;1.33;0.60;;;;;;;11.85;100.00;97182.78;15286045;19;20538;-56
2024/03/11 11:48:53;;;;;;;0.65;0.65;;;;;;;12.11;100.00;97172.31;15297422;19;20021;-55
2024/03/11 11:54:29;;;;;;;1.15;0.63;;;;;;;12.17;100.00;97179.63;15034517;19;5001859;-56
2024/03/11 12:00:13;;;;;;;0.80;0.40;;;;;;;12.32;100.00;97174.88;15298838;19;20018;-52
2024/03/11 12:05:41;;;;;;;0.85;0.52;;;;;;;12.64;100.00;97172.47;15288812;19;20085;-51
2024/03/11 12:11:15;;;;;;;1.10;0.38;;;;;;;13.09;100.00;97174.56;15288020;19;20021;-53
2024/03/11 12:16:42;;;;;;;1.25;0.32;;;;;;;13.31;100.00;97174.34;15283728;19;20366;-52
2024/03/11 12:22:13;;;;;;;0.55;0.40;;;;;;;13.55;100.00;97189.16;15286022;19;20020;-57
2024/03/11 12:27:40;;;;;;;0.75;0.45;;;;;;;13.67;100.00;97188.50;15290635;19;20018;-54
2024/03/11 12:33:09;;;;;;;0.57;0.38;;;;;;;13.82;100.00;97194.47;15282798;19;20014;-55
2024/03/11 12:38:35;;;;;;;0.60;0.40;;;;;;;13.92;100.00;97204.06;15292761;19;20032;-51
2024/03/11 12:44:12;;;;;;;0.30;0.30;;;;;;;14.08;100.00;97200.03;15281871;19;20018;-52
2024/03/11 12:49:40;;;;;;;0.40;0.40;;;;;;;14.00;100.00;97196.50;15285373;19;20029;-52
2024/03/11 12:55:10;;;;;;;1.08;0.38;;;;;;;14.00;100.00;97193.78;15281956;19;20432;-51
2024/03/11 13:00:35;;;;;;;1.88;0.40;;;;;;;13.92;100.00;97204.06;15285629;19;20019;-54
2024/03/11 13:06:12;;;;;;;0.32;0.30;;;;;;;14.01;100.00;97211.72;15292062;19;20021;-52
2024/03/11 13:11:39;;;;;;;1.08;0.40;;;;;;;14.20;100.00;97216.44;15281372;19;20354;-54
2024/03/11 13:17:04;;;;;;;0.43;0.30;;;;;;;14.47;100.00;97212.56;15283002;19;20429;-53
2024/03/11 13:22:32;;;;;;;0.98;0.30;;;;;;;14.67;100.00;97217.06;15281926;19;20042;-53
2024/03/11 13:27:56;;;;;;;2.58;0.47;;;;;;;14.71;100.00;97207.47;15286178;19;20482;-51
2024/03/11 13:33:21;;;;;;;0.40;0.30;;;;;;;14.64;100.00;97214.78;15293872;19;20031;-50
2024/03/11 13:38:48;;;;;;;0.50;0.40;;;;;;;14.49;100.00;97205.06;15303372;19;20758;-50
2024/03/11 13:44:14;;;;;;;0.35;0.30;;;;;;;14.07;100.00;97218.16;15291518;19;20031;-55
2024/03/11 13:49:39;;;;;;;0.40;0.38;;;;;;;13.80;100.00;97220.94;15303808;19;20022;-52
2024/03/11 13:55:08;;;;;;;0.40;0.30;;;;;;;13.95;100.00;97218.00;15293312;19;20025;-55
2024/03/11 14:00:32;;;;;;;0.45;0.40;;;;;;;14.41;100.00;97220.72;15303519;19;20022;-52
2024/03/11 14:05:57;;;;;;;0.65;0.30;;;;;;;14.44;100.00;97223.03;15297275;19;20021;-52
2024/03/11 14:11:25;;;;;;;0.88;0.32;;;;;;;14.69;100.00;97244.81;15298466;19;20022;-53
2024/03/11 14:16:50;;;;;;;0.30;0.20;;;;;;;15.10;100.00;97248.94;15298154;19;20011;-55
2024/03/11 14:22:14;;;;;;;0.68;0.30;;;;;;;15.44;100.00;97237.00;15290688;19;20659;-54
2024/03/11 14:27:49;;;;;;;0.68;0.38;;;;;;;15.33;100.00;97235.81;15295148;19;20036;-51
2024/03/11 14:33:15;;;;;;;0.30;0.30;;;;;;;15.74;100.00;97244.44;15288235;19;20039;-52
2024/03/11 14:38:41;;;;;;;0.75;0.30;;;;;;;16.00;95.64;97241.50;15297378;19;20550;-54
2024/03/11 14:44:09;;;;;;;0.20;0.20;;;;;;;15.92;93.73;97239.09;15291694;19;20028;-53
2024/03/11 14:49:34;;;;;;;0.40;0.40;;;;;;;16.28;93.70;97247.47;15299014;19;20025;-54
2024/03/11 14:54:59;;;;;;;1.25;0.30;;;;;;;16.52;87.89;97259.31;15292000;19;20078;-52
2024/03/11 15:00:26;;;;;;;0.77;0.40;;;;;;;15.95;93.03;97271.22;15295072;19;20021;-54
2024/03/11 15:05:51;;;;;;;1.10;0.43;;;;;;;15.32;96.60;97261.28;15291536;19;20021;-56
2024/03/11 15:11:18;;;;;;;0.40;0.30;;;;;;;15.28;97.03;97281.81;15288742;19;20026;-51
2024/03/11 15:16:46;;;;;;;0.57;0.30;;;;;;;15.02;98.32;97273.59;15290242;19;20032;-50
2024/03/11 15:22:12;;;;;;;2.65;0.40;;;;;;;14.73;100.00;97275.88;15293070;19;20031;-50
2024/03/11 15:27:38;;;;;;;0.57;0.32;;;;;;;14.37;98.66;97279.09;15295798;19;20066;-53
2024/03/11 15:33:05;;;;;;;0.68;0.30;;;;;;;14.15;100.00;97293.75;15289171;19;20535;-51
2024/03/11 15:38:31;;;;;;;0.63;0.30;;;;;;;13.99;100.00;97299.63;15291428;19;20014;-52
2024/03/11 15:43:56;;;;;;;0.40;0.30;;;;;;;13.89;100.00;97296.50;15285812;19;20025;-56
2024/03/11 15:49:24;;;;;;;0.85;0.30;;;;;;;13.86;100.00;97304.00;15294617;19;20057;-56
2024/03/11 15:54:48;;;;;;;0.20;0.20;;;;;;;13.75;100.00;97312.75;15290370;19;20054;-55
2024/03/11 16:00:08;;;;;;;0.35;0.30;;;;;;;13.58;100.00;97316.94;15262426;19;20010;-57
2024/03/11 16:05:37;;;;;;;1.25;0.40;;;;;;;13.45;100.00;97324.00;15289218;19;20017;-52
2024/03/11 16:11:02;;;;;;;0.30;0.30;;;;;;;13.33;100.00;97339.97;15283472;19;20025;-53
2024/03/11 16:16:28;;;;;;;0.63;0.30;;;;;;;13.13;100.00;97337.22;15284187;19;20022;-57
2024/03/11 16:21:56;;;;;;;0.47;0.38;;;;;;;13.07;100.00;97340.75;15288246;19;20073;-55
2024/03/11 16:27:21;;;;;;;1.08;0.20;;;;;;;13.18;100.00;97339.31;15027917;19;5001550;-53
2024/03/11 16:32:54;;;;;;;0.20;0.20;;;;;;;13.29;100.00;97348.72;15284927;19;20022;-53
2024/03/11 16:38:22;;;;;;;0.73;0.30;;;;;;;13.39;100.00;97354.56;15285138;19;20367;-50
2024/03/11 16:43:47;;;;;;;0.65;0.28;;;;;;;13.26;100.00;97356.19;15287379;19;20022;-55
2024/03/11 16:49:12;;;;;;;2.75;0.40;;;;;;;13.22;100.00;97365.78;15290931;19;20807;-51
2024/03/11 16:54:40;;;;;;;0.75;0.35;;;;;;;13.30;100.00;97374.72;15286454;19;20304;-52
2024/03/11 17:00:10;;;;;;;0.95;0.47;;;;;;;13.27;100.00;97386.78;15290960;19;20347;-52
2024/03/11 17:05:38;;;;;;;1.40;0.80;;;;;;;13.05;100.00;97400.44;15288878;19;20018;-55
2024/03/11 17:11:06;;;;;;;0.77;0.70;;;;;;;12.75;100.00;97405.31;15301029;19;20097;-54
2024/03/11 17:16:32;;;;;;;0.73;0.73;;;;;;;12.56;100.00;97413.09;15297226;19;20034;-53
2024/03/11 17:21:57;;;;;;;1.33;0.90;;;;;;;12.22;100.00;97417.44;15297766;19;20011;-53
2024/03/11 17:27:25;;;;;;;2.20;0.90;;;;;;;11.95;100.00;97433.41;15303899;19;20017;-55
2024/03/11 17:32:58;;;;;;;2.00;1.05;;;;;;;11.62;100.00;97444.72;15299787;19;20473;-56
2024/03/11 17:38:25;;;;;;;1.63;0.93;;;;;;;11.38;100.00;97454.84;15290087;19;20885;-55
2024/03/11 17:43:54;;;;;;;1.52;1.15;;;;;;;11.23;100.00;97459.47;15284727;19;20689;-55
2024/03/11 17:49:19;;;;;;;2.67;1.20;;;;;;;11.13;100.00;97472.38;15298723;19;20014;-56
2024/03/11 17:54:44;;;;;;;4.63;3.17;;;;;;;11.01;100.00;97477.44;15302630;19;20078;-53
2024/03/11 18:00:13;;;;;;;1.88;1.30;;;;;;;10.83;100.00;97486.72;15299060;19;20015;-55
2024/03/11 18:05:40;;;;;;;4.28;1.02;;;;;;;10.68;100.00;97485.91;15293432;19;20025;-56
2024/03/11 18:11:06;;;;;;;2.60;1.00;;;;;;;10.54;100.00;97485.69;15293456;19;20082;-56
2024/03/11 18:16:34;;;;;;;1.35;1.15;;;;;;;10.44;100.00;97490.50;15300270;19;20078;-55
2024/03/11 18:21:58;;;;;;;34.33;30.92;;;;;;;10.30;100.00;97516.34;15295074;19;20823;-56
2024/03/11 18:27:23;;;;;;;12.00;10.80;;;;;;;10.08;100.00;97510.81;15300477;19;20021;-54
2024/03/11 18:32:59;;;;;;;3.10;1.38;;;;;;;10.05;100.00;97513.88;15288482;19;20024;-52
2024/03/11 18:38:25;;;;;;;2.33;1.15;;;;;;;10.09;100.00;97527.81;15292785;19;20368;-57
2024/03/11 18:43:50;;;;;;;3.13;1.45;;;;;;;10.10;100.00;97533.00;15292530;19;20014;-54
2024/03/11 18:49:18;;;;;;;4.15;1.27;;;;;;;10.10;100.00;97530.31;15299174;19;20018;-55
2024/03/11 18:54:43;;;;;;;1.30;1.20;;;;;;;10.04;100.00;97549.88;15292768;19;20022;-55
2024/03/11 19:00:11;;;;;;;2.47;2.08;;;;;;;9.78;100.00;97561.81;15296982;19;20082;-57
2024/03/11 19:05:39;;;;;;;2.38;1.80;;;;;;;9.47;100.00;97564.50;15288025;19;20404;-56
2024/03/11 19:11:05;;;;;;;3.58;1.70;;;;;;;9.23;100.00;97572.47;15289574;19;20018;-54
2024/03/11 19:16:30;;;;;;;2.83;1.70;;;;;;;9.08;100.00;97569.69;15288241;19;20096;-53
2024/03/11 19:21:58;;;;;;;2.05;1.60;;;;;;;8.91;100.00;97576.13;15291667;19;20444;-55
2024/03/11 19:27:23;;;;;;;2.42;2.00;;;;;;;8.89;100.00;97578.13;15293402;19;20019;-55
2024/03/11 19:32:54;;;;;;;6.75;3.60;;;;;;;8.78;100.00;97582.88;15280443;19;20031;-55
2024/03/11 19:38:48;;;;;;;2.40;1.80;;;;;;;8.63;100.00;97589.94;15284573;19;20030;-53
2024/03/11 19:44:42;;;;;;;3.30;1.60;;;;;;;8.49;100.00;97599.50;15282891;19;20029;-57
2024/03/11 19:50:48;;;;;;;1.67;1.58;;;;;;;8.35;100.00;97597.47;15285095;19;20372;-56
2024/03/11 19:56:50;;;;;;;2.00;1.70;;;;;;;8.17;100.00;97612.72;15285277;19;20018;-56
2024/03/11 20:02:39;;;;;;;;;;;;;;;8.02;100.00;97622.41;15283296;19;20018;-54
2024/03/11 20:08:30;;;;;;;4.47;2.00;;;;;;;7.97;100.00;97638.16;15290332;19;19919;-56
2024/03/11 20:14:16;;;;;;;2.13;1.75;;;;;;;7.85;100.00;97640.28;15281557;19;20019;-55
2024/03/11 20:20:15;;;;;;;2.40;1.95;;;;;;;7.76;100.00;97646.66;15284637;19;20451;-55
2024/03/11 20:26:07;;;;;;;2.30;1.90;;;;;;;7.77;100.00;97656.38;15287270;19;20081;-56
2024/03/11 20:31:43;;;;;;;2.15;1.80;;;;;;;7.79;100.00;97662.41;15282120;19;20024;-55
2024/03/11 20:37:12;;;;;;;2.42;1.70;;;;;;;7.77;100.00;97670.59;15287544;19;20026;-55
2024/03/11 20:42:36;;;;;;;3.67;1.80;;;;;;;7.79;100.00;97679.31;15282677;19;20388;-57
2024/03/11 20:48:01;;;;;;;3.17;1.83;;;;;;;7.80;100.00;97674.81;15286781;19;20077;-54
2024/03/11 20:53:29;;;;;;;2.83;1.80;;;;;;;7.78;100.00;97683.00;15270898;19;20098;-53
2024/03/11 20:58:53;;;;;;;3.03;1.70;;;;;;;7.74;100.00;97678.13;15282563;19;20010;-55
2024/03/11 21:04:19;;;;;;;2.17;1.55;;;;;;;7.58;100.00;97693.16;15289723;19;20022;-54
2024/03/11 21:09:46;;;;;;;1.88;1.35;;;;;;;7.43;100.00;97700.13;15285190;19;20015;-55
2024/03/11 21:15:12;;;;;;;4.60;2.10;;;;;;;7.33;100.00;97703.75;15287121;19;20028;-53
2024/03/11 21:21:06;;;;;;;2.17;1.77;;;;;;;7.33;100.00;97711.78;15283215;19;20010;-56
2024/03/11 21:27:02;;;;;;;2.53;1.90;;;;;;;7.27;100.00;97715.09;15280046;19;20014;-55
2024/03/11 21:32:32;;;;;;;1.58;1.48;;;;;;;7.27;100.00;97724.97;15278591;19;20019;-54
2024/03/11 21:37:57;;;;;;;2.97;1.75;;;;;;;7.19;100.00;97725.75;15282809;19;20475;-56
2024/03/11 21:43:39;;;;;;;5.32;1.80;;;;;;;7.13;100.00;97729.03;15276898;19;20021;-56
2024/03/11 21:49:04;;;;;;;1.85;1.60;;;;;;;7.10;100.00;97724.84;15284963;19;20022;-53
2024/03/11 21:54:29;;;;;;;4.68;1.85;;;;;;;7.07;100.00;97731.38;15295693;19;20018;-54
2024/03/11 21:59:56;;;;;;;2.22;1.90;;;;;;;6.91;100.00;97734.78;15293723;19;20082;-55
2024/03/11 22:05:25;;;;;;;4.60;2.00;;;;;;;6.75;100.00;97739.97;15288230;19;20639;-55
2024/03/11 22:10:51;;;;;;;2.20;1.77;;;;;;;6.62;100.00;97745.72;15299528;19;20014;-53
2024/03/11 22:16:19;;;;;;;3.45;1.70;;;;;;;6.46;100.00;97741.88;15299535;19;20351;-55
2024/03/11 22:21:43;;;;;;;1.55;1.42;;;;;;;6.44;100.00;97749.22;15298739;19;20029;-51
2024/03/11 22:27:08;;;;;;;1.83;1.70;;;;;;;6.45;100.00;97753.59;15298963;19;20087;-55
2024/03/11 22:32:42;;;;;;;2.58;1.58;;;;;;;6.46;100.00;97757.94;15293735;19;20022;-54
2024/03/11 22:38:07;;;;;;;1.90;1.30;;;;;;;6.52;100.00;97756.50;15290840;19;20018;-56
2024/03/11 22:43:32;;;;;;;1.23;1.10;;;;;;;6.58;100.00;97755.03;15287709;19;20220;-55
2024/03/11 22:49:00;;;;;;;1.50;1.38;;;;;;;6.57;100.00;97750.69;15296390;19;20014;-53
2024/03/11 22:54:31;;;;;;;1.92;1.38;;;;;;;6.54;100.00;97753.66;15299993;19;20018;-55
2024/03/11 22:59:56;;;;;;;1.50;1.40;;;;;;;6.44;100.00;97754.56;15288805;19;20086;-57
2024/03/11 23:05:23;;;;;;;1.40;1.25;;;;;;;6.31;100.00;97749.59;15287765;19;20014;-52
2024/03/11 23:10:52;;;;;;;1.98;1.45;;;;;;;6.18;100.00;97754.47;15293383;19;20032;-55
2024/03/11 23:16:19;;;;;;;1.60;1.33;;;;;;;6.10;100.00;97752.53;15285212;19;20026;-56
2024/03/11 23:21:47;;;;;;;2.28;1.42;;;;;;;6.00;100.00;97757.09;15295248;19;20018;-55
2024/03/11 23:27:12;;;;;;;1.98;1.52;;;;;;;5.95;100.00;97756.66;15293382;19;20602;-57
2024/03/11 23:32:44;;;;;;;2.30;1.40;;;;;;;5.88;100.00;97755.56;15275778;19;20014;-56
2024/03/11 23:38:14;;;;;;;2.03;1.50;;;;;;;5.82;100.00;97757.84;15282543;19;20471;-55
2024/03/11 23:43:38;;;;;;;2.13;1.50;;;;;;;5.76;100.00;97754.94;15278486;19;20015;-55
2024/03/11 23:49:10;;;;;;;2.40;1.40;;;;;;;5.74;100.00;97762.25;15290672;19;20018;-56
2024/03/11 23:54:39;;;;;;;2.33;1.52;;;;;;;5.74;100.00;97763.09;15291963;19;20485;-56
2024/03/11 23:59:58;;;;;;;1.75;1.35;;;;;;;5.72;100.00;97759.72;15283197;19;20022;-55
